sensor_id;sensor_type;location;lat;lon;timestamp;pressure;altitude;pressure_sealevel;temperature;humidity
76632;BME280;65526;48.578;-4.520;2023-05-29T00:00:38;101726.22;;;14.55;87.61
76632;BME280;65526;48.578;-4.520;2023-05-29T00:03:04;101270.59;;;11.49;87.56
76632;BME280;65526;48.578;-4.520;2023-05-29T00:05:31;101715.28;;;14.50;87.92
76632;BME280;65526;48.578;-4.520;2023-05-29T00:07:57;101805.97;;;14.49;87.62
76632;BME280;65526;48.578;-4.520;2023-05-29T00:10:24;101718.00;;;14.47;87.29
76632;BME280;65526;48.578;-4.520;2023-05-29T00:12:51;101434.34;;;12.10;87.19
76632;BME280;65526;48.578;-4.520;2023-05-29T00:15:18;101265.94;;;11.41;86.96
76632;BME280;65526;48.578;-4.520;2023-05-29T00:17:45;101764.25;;;14.44;86.77
76632;BME280;65526;48.578;-4.520;2023-05-29T00:20:12;101084.28;;;10.01;86.39
76632;BME280;65526;48.578;-4.520;2023-05-29T00:22:39;101716.13;;;14.39;86.44
76632;BME280;65526;48.578;-4.520;2023-05-29T00:25:06;101714.81;;;14.36;86.19
76632;BME280;65526;48.578;-4.520;2023-05-29T00:27:34;101432.59;;;12.05;85.62
76632;BME280;65526;48.578;-4.520;2023-05-29T00:30:01;101562.22;;;13.22;85.22
76632;BME280;65526;48.578;-4.520;2023-05-29T00:32:29;101708.78;;;14.34;85.49
76632;BME280;65526;48.578;-4.520;2023-05-29T00:34:55;101458.94;;;12.53;85.09
76632;BME280;65526;48.578;-4.520;2023-05-29T00:37:22;101717.03;;;14.31;85.19
76632;BME280;65526;48.578;-4.520;2023-05-29T00:39:49;101237.00;;;11.01;84.27
76632;BME280;65526;48.578;-4.520;2023-05-29T00:42:15;101778.31;;;14.23;84.61
76632;BME280;65526;48.578;-4.520;2023-05-29T00:44:42;101399.22;;;12.29;83.75
76632;BME280;65526;48.578;-4.520;2023-05-29T00:47:08;101213.31;;;11.16;83.65
76632;BME280;65526;48.578;-4.520;2023-05-29T00:49:36;101341.50;;;11.31;83.50
76632;BME280;65526;48.578;-4.520;2023-05-29T00:52:03;101749.66;;;14.14;83.77
76632;BME280;65526;48.578;-4.520;2023-05-29T00:54:33;101194.91;;;10.90;83.28
76632;BME280;65526;48.578;-4.520;2023-05-29T00:57:01;101199.72;;;11.02;83.73
76632;BME280;65526;48.578;-4.520;2023-05-29T00:59:30;101463.56;;;12.37;83.45
76632;BME280;65526;48.578;-4.520;2023-05-29T01:01:59;101064.34;;;9.99;83.79
76632;BME280;65526;48.578;-4.520;2023-05-29T01:04:27;100957.50;;;9.13;83.24
76632;BME280;65526;48.578;-4.520;2023-05-29T01:06:53;101673.59;;;13.97;83.80
76632;BME280;65526;48.578;-4.520;2023-05-29T01:09:20;101039.72;;;9.47;83.45
76632;BME280;65526;48.578;-4.520;2023-05-29T01:28:25;101671.50;;;13.81;84.65
76632;BME280;65526;48.578;-4.520;2023-05-29T01:30:54;101006.84;;;9.78;84.11
76632;BME280;65526;48.578;-4.520;2023-05-29T01:33:23;101684.78;;;13.84;84.00
76632;BME280;65526;48.578;-4.520;2023-05-29T01:35:50;101422.13;;;12.02;84.13
76632;BME280;65526;48.578;-4.520;2023-05-29T01:38:17;101683.97;;;13.84;84.33
76632;BME280;65526;48.578;-4.520;2023-05-29T01:40:44;101460.91;;;12.07;83.91
76632;BME280;65526;48.578;-4.520;2023-05-29T01:43:12;101660.47;;;13.85;83.67
76632;BME280;65526;48.578;-4.520;2023-05-29T01:45:39;101448.47;;;12.25;83.67
76632;BME280;65526;48.578;-4.520;2023-05-29T01:48:06;101336.97;;;11.80;83.96
76632;BME280;65526;48.578;-4.520;2023-05-29T01:50:34;101368.25;;;11.44;83.69
76632;BME280;65526;48.578;-4.520;2023-05-29T01:53:01;101170.19;;;10.77;83.69
76632;BME280;65526;48.578;-4.520;2023-05-29T01:55:28;101196.13;;;10.39;83.79
76632;BME280;65526;48.578;-4.520;2023-05-29T01:57:55;101667.09;;;13.80;84.33
76632;BME280;65526;48.578;-4.520;2023-05-29T02:00:22;101717.84;;;13.82;84.25
76632;BME280;65526;48.578;-4.520;2023-05-29T02:02:50;101671.50;;;13.81;84.35
76632;BME280;65526;48.578;-4.520;2023-05-29T02:05:16;101084.56;;;9.78;83.81
76632;BME280;65526;48.578;-4.520;2023-05-29T02:07:43;101718.91;;;13.78;84.76
76632;BME280;65526;48.578;-4.520;2023-05-29T02:10:10;101291.00;;;11.21;84.51
76632;BME280;65526;48.578;-4.520;2023-05-29T02:12:37;101173.13;;;10.71;84.60
76632;BME280;65526;48.578;-4.520;2023-05-29T02:15:03;101770.69;;;13.75;85.62
76632;BME280;65526;48.578;-4.520;2023-05-29T02:17:31;101303.78;;;11.22;85.09
76632;BME280;65526;48.578;-4.520;2023-05-29T02:19:57;101462.53;;;12.08;85.87
76632;BME280;65526;48.578;-4.520;2023-05-29T02:22:24;101697.59;;;13.73;86.30
76632;BME280;65526;48.578;-4.520;2023-05-29T02:24:50;101212.31;;;10.58;86.13
76632;BME280;65526;48.578;-4.520;2023-05-29T02:27:16;101742.63;;;13.72;86.81
76632;BME280;65526;48.578;-4.520;2023-05-29T02:29:43;101208.66;;;10.66;86.44
76632;BME280;65526;48.578;-4.520;2023-05-29T02:32:10;101456.03;;;12.37;86.60
76632;BME280;65526;48.578;-4.520;2023-05-29T02:34:37;101474.13;;;12.31;87.34
76632;BME280;65526;48.578;-4.520;2023-05-29T02:37:04;101177.81;;;10.59;87.44
76632;BME280;65526;48.578;-4.520;2023-05-29T02:39:30;101437.16;;;11.68;87.71
76632;BME280;65526;48.578;-4.520;2023-05-29T02:41:57;101481.44;;;12.36;87.54
76632;BME280;65526;48.578;-4.520;2023-05-29T02:44:23;100937.28;;;9.12;87.99
76632;BME280;65526;48.578;-4.520;2023-05-29T02:46:51;101677.22;;;13.85;87.86
76632;BME280;65526;48.578;-4.520;2023-05-29T02:49:17;101001.41;;;9.40;87.48
76632;BME280;65526;48.578;-4.520;2023-05-29T02:51:43;100929.63;;;9.09;87.11
76632;BME280;65526;48.578;-4.520;2023-05-29T02:54:10;101425.91;;;12.18;88.10
76632;BME280;65526;48.578;-4.520;2023-05-29T02:56:38;100989.31;;;9.16;87.72
76632;BME280;65526;48.578;-4.520;2023-05-29T02:59:05;101721.94;;;13.85;88.54
76632;BME280;65526;48.578;-4.520;2023-05-29T03:01:31;101751.94;;;13.76;88.73
76632;BME280;65526;48.578;-4.520;2023-05-29T03:03:59;101443.50;;;12.43;88.35
76632;BME280;65526;48.578;-4.520;2023-05-29T03:06:25;101510.47;;;12.35;88.57
76632;BME280;65526;48.578;-4.520;2023-05-29T03:08:52;101738.34;;;13.86;89.44
76632;BME280;65526;48.578;-4.520;2023-05-29T03:11:19;101401.03;;;12.13;88.74
76632;BME280;65526;48.578;-4.520;2023-05-29T03:13:47;101697.72;;;13.89;88.84
76632;BME280;65526;48.578;-4.520;2023-05-29T03:16:15;101769.22;;;13.90;89.33
76632;BME280;65526;48.578;-4.520;2023-05-29T03:18:43;101079.69;;;9.46;88.97
76632;BME280;65526;48.578;-4.520;2023-05-29T03:21:10;101704.00;;;13.86;90.05
76632;BME280;65526;48.578;-4.520;2023-05-29T03:23:37;101314.91;;;11.22;89.40
76632;BME280;65526;48.578;-4.520;2023-05-29T03:26:04;100997.25;;;9.55;89.63
76632;BME280;65526;48.578;-4.520;2023-05-29T03:28:34;101737.88;;;13.84;90.35
76632;BME280;65526;48.578;-4.520;2023-05-29T03:31:03;100949.69;;;9.15;89.60
76632;BME280;65526;48.578;-4.520;2023-05-29T03:33:30;101353.25;;;11.37;90.24
76632;BME280;65526;48.578;-4.520;2023-05-29T03:36:06;101704.78;;;13.74;90.51
76632;BME280;65526;48.578;-4.520;2023-05-29T03:38:34;100919.47;;;8.93;90.01
76632;BME280;65526;48.578;-4.520;2023-05-29T03:41:00;101208.72;;;10.78;90.42
76632;BME280;65526;48.578;-4.520;2023-05-29T03:43:27;101748.50;;;13.91;90.71
76632;BME280;65526;48.578;-4.520;2023-05-29T03:45:54;101428.13;;;12.25;89.91
76632;BME280;65526;48.578;-4.520;2023-05-29T03:48:20;101240.06;;;10.87;89.88
76632;BME280;65526;48.578;-4.520;2023-05-29T03:50:48;101474.03;;;12.07;90.34
76632;BME280;65526;48.578;-4.520;2023-05-29T03:53:20;101734.75;;;13.86;90.46
76632;BME280;65526;48.578;-4.520;2023-05-29T03:55:47;100978.84;;;9.21;89.28
76632;BME280;65526;48.578;-4.520;2023-05-29T03:58:13;101475.31;;;12.09;89.76
76632;BME280;65526;48.578;-4.520;2023-05-29T04:00:40;101498.75;;;12.08;90.06
76632;BME280;65526;48.578;-4.520;2023-05-29T04:03:08;100983.34;;;8.96;89.14
76632;BME280;65526;48.578;-4.520;2023-05-29T04:05:34;101494.88;;;12.21;89.33
76632;BME280;65526;48.578;-4.520;2023-05-29T04:08:02;101146.38;;;10.25;89.56
76632;BME280;65526;48.578;-4.520;2023-05-29T04:10:30;101088.84;;;9.46;89.35
76632;BME280;65526;48.578;-4.520;2023-05-29T04:13:02;101717.50;;;13.72;90.00
76632;BME280;65526;48.578;-4.520;2023-05-29T04:15:29;101253.69;;;10.59;89.54
76632;BME280;65526;48.578;-4.520;2023-05-29T04:17:56;101209.47;;;10.46;89.48
76632;BME280;65526;48.578;-4.520;2023-05-29T04:20:22;101516.28;;;12.29;89.92
76632;BME280;65526;48.578;-4.520;2023-05-29T04:22:49;101266.22;;;10.65;89.73
76632;BME280;65526;48.578;-4.520;2023-05-29T04:25:15;101309.53;;;10.96;89.58
76632;BME280;65526;48.578;-4.520;2023-05-29T04:27:42;101734.38;;;13.75;89.78
76632;BME280;65526;48.578;-4.520;2023-05-29T04:30:10;101139.38;;;9.61;89.66
76632;BME280;65526;48.578;-4.520;2023-05-29T04:32:43;101803.53;;;13.78;89.58
76632;BME280;65526;48.578;-4.520;2023-05-29T04:35:10;101082.50;;;9.37;89.26
76632;BME280;65526;48.578;-4.520;2023-05-29T04:37:41;100931.78;;;8.74;88.63
76632;BME280;65526;48.578;-4.520;2023-05-29T04:40:11;101469.00;;;11.79;89.70
76632;BME280;65526;48.578;-4.520;2023-05-29T04:42:38;101531.09;;;12.21;89.31
76632;BME280;65526;48.578;-4.520;2023-05-29T04:45:07;101523.34;;;12.06;89.33
76632;BME280;65526;48.578;-4.520;2023-05-29T04:47:38;101330.19;;;10.86;89.39
76632;BME280;65526;48.578;-4.520;2023-05-29T04:50:12;101788.34;;;13.67;89.33
76632;BME280;65526;48.578;-4.520;2023-05-29T04:52:42;101049.81;;;9.22;89.09
76632;BME280;65526;48.578;-4.520;2023-05-29T04:55:10;101564.81;;;12.28;89.76
76632;BME280;65526;48.578;-4.520;2023-05-29T04:57:38;101120.38;;;9.42;89.12
76632;BME280;65526;48.578;-4.520;2023-05-29T05:00:07;101511.16;;;11.99;89.36
76632;BME280;65526;48.578;-4.520;2023-05-29T05:02:42;101781.75;;;13.72;89.45
76632;BME280;65526;48.578;-4.520;2023-05-29T05:05:09;101463.72;;;11.86;89.48
76632;BME280;65526;48.578;-4.520;2023-05-29T05:07:36;101272.81;;;10.61;89.34
76632;BME280;65526;48.578;-4.520;2023-05-29T05:10:03;101103.50;;;9.56;89.48
76632;BME280;65526;48.578;-4.520;2023-05-29T05:12:31;100996.53;;;9.08;89.33
76632;BME280;65526;48.578;-4.520;2023-05-29T05:14:59;101292.56;;;10.68;89.69
76632;BME280;65526;48.578;-4.520;2023-05-29T05:17:26;101477.84;;;12.02;89.84
76632;BME280;65526;48.578;-4.520;2023-05-29T05:19:52;101779.22;;;13.79;90.05
76632;BME280;65526;48.578;-4.520;2023-05-29T05:22:19;101261.81;;;10.64;90.23
76632;BME280;65526;48.578;-4.520;2023-05-29T05:24:48;101463.88;;;11.90;89.95
76632;BME280;65526;48.578;-4.520;2023-05-29T05:27:15;101808.91;;;13.83;90.10
76632;BME280;65526;48.578;-4.520;2023-05-29T05:29:41;101776.19;;;13.84;90.31
76632;BME280;65526;48.578;-4.520;2023-05-29T05:32:07;101821.81;;;13.88;89.84
76632;BME280;65526;48.578;-4.520;2023-05-29T05:34:34;101763.47;;;13.74;89.81
76632;BME280;65526;48.578;-4.520;2023-05-29T05:37:00;101269.25;;;10.81;89.15
76632;BME280;65526;48.578;-4.520;2023-05-29T05:39:29;101158.59;;;9.66;89.24
76632;BME280;65526;48.578;-4.520;2023-05-29T05:41:55;101291.22;;;10.95;89.05
76632;BME280;65526;48.578;-4.520;2023-05-29T05:44:39;101566.00;;;12.40;89.31
76632;BME280;65526;48.578;-4.520;2023-05-29T05:47:10;101334.78;;;10.91;88.98
76632;BME280;65526;48.578;-4.520;2023-05-29T05:49:37;101795.53;;;14.01;89.38
76632;BME280;65526;48.578;-4.520;2023-05-29T05:52:03;101243.44;;;10.72;88.28
76632;BME280;65526;48.578;-4.520;2023-05-29T05:54:30;101550.38;;;12.26;88.53
76632;BME280;65526;48.578;-4.520;2023-05-29T05:56:56;101484.50;;;11.89;88.79
76632;BME280;65526;48.578;-4.520;2023-05-29T05:59:23;101808.72;;;14.13;88.84
76632;BME280;65526;48.578;-4.520;2023-05-29T06:01:50;101400.34;;;11.42;87.85
76632;BME280;65526;48.578;-4.520;2023-05-29T06:04:17;101810.13;;;14.19;88.05
76632;BME280;65526;48.578;-4.520;2023-05-29T06:06:45;101839.72;;;14.20;88.00
76632;BME280;65526;48.578;-4.520;2023-05-29T06:09:11;101788.69;;;14.23;88.08
76632;BME280;65526;48.578;-4.520;2023-05-29T06:11:38;101811.78;;;14.20;87.59
76632;BME280;65526;48.578;-4.520;2023-05-29T06:14:04;101358.53;;;11.50;87.01
76632;BME280;65526;48.578;-4.520;2023-05-29T06:16:31;101259.56;;;10.58;87.06
76632;BME280;65526;48.578;-4.520;2023-05-29T06:18:58;101346.84;;;10.95;87.08
76632;BME280;65526;48.578;-4.520;2023-05-29T06:21:26;101803.97;;;14.25;86.95
76632;BME280;65526;48.578;-4.520;2023-05-29T06:23:54;101156.59;;;10.33;86.35
76632;BME280;65526;48.578;-4.520;2023-05-29T06:26:21;101180.41;;;10.43;86.51
76632;BME280;65526;48.578;-4.520;2023-05-29T06:28:49;101362.03;;;11.60;86.99
76632;BME280;65526;48.578;-4.520;2023-05-29T06:31:16;101399.03;;;11.60;86.56
76632;BME280;65526;48.578;-4.520;2023-05-29T06:33:44;101814.84;;;14.39;86.62
76632;BME280;65526;48.578;-4.520;2023-05-29T06:36:10;101602.38;;;12.64;86.15
76632;BME280;65526;48.578;-4.520;2023-05-29T06:38:37;101329.84;;;11.38;85.81
76632;BME280;65526;48.578;-4.520;2023-05-29T06:41:03;101620.78;;;12.77;85.85
76632;BME280;65526;48.578;-4.520;2023-05-29T06:43:30;101614.78;;;12.87;85.45
76632;BME280;65526;48.578;-4.520;2023-05-29T06:45:57;101809.06;;;14.23;85.40
76632;BME280;65526;48.578;-4.520;2023-05-29T06:48:24;101326.56;;;11.36;84.86
76632;BME280;65526;48.578;-4.520;2023-05-29T06:50:51;101538.34;;;12.67;84.93
76632;BME280;65526;48.578;-4.520;2023-05-29T06:53:40;101835.81;;;14.45;85.41
76632;BME280;65526;48.578;-4.520;2023-05-29T06:56:09;101828.66;;;14.36;85.95
76632;BME280;65526;48.578;-4.520;2023-05-29T06:58:36;101005.44;;;9.22;85.51
76632;BME280;65526;48.578;-4.520;2023-05-29T07:01:02;101393.16;;;11.41;85.26
76632;BME280;65526;48.578;-4.520;2023-05-29T07:03:32;101515.03;;;12.39;85.77
76632;BME280;65526;48.578;-4.520;2023-05-29T07:06:01;101909.94;;;14.51;85.31
76632;BME280;65526;48.578;-4.520;2023-05-29T07:08:28;101337.38;;;11.37;85.00
76632;BME280;65526;48.578;-4.520;2023-05-29T07:10:55;101608.59;;;12.82;85.11
76632;BME280;65526;48.578;-4.520;2023-05-29T07:13:21;101912.50;;;14.56;84.74
76632;BME280;65526;48.578;-4.520;2023-05-29T07:15:48;101914.63;;;14.59;84.99
76632;BME280;65526;48.578;-4.520;2023-05-29T07:18:15;101598.44;;;12.98;84.16
76632;BME280;65526;48.578;-4.520;2023-05-29T07:20:42;101581.91;;;12.60;84.18
76632;BME280;65526;48.578;-4.520;2023-05-29T07:23:12;101451.53;;;12.12;83.97
76632;BME280;65526;48.578;-4.520;2023-05-29T07:25:38;101939.47;;;14.73;84.92
76632;BME280;65526;48.578;-4.520;2023-05-29T07:28:04;101925.00;;;14.71;84.54
76632;BME280;65526;48.578;-4.520;2023-05-29T07:30:31;101927.56;;;14.76;84.69
76632;BME280;65526;48.578;-4.520;2023-05-29T07:32:58;101868.09;;;14.79;84.47
76632;BME280;65526;48.578;-4.520;2023-05-29T07:35:24;101598.59;;;12.81;84.01
76632;BME280;65526;48.578;-4.520;2023-05-29T07:37:51;101465.28;;;11.96;84.37
76632;BME280;65526;48.578;-4.520;2023-05-29T07:40:18;101400.69;;;11.82;84.23
76632;BME280;65526;48.578;-4.520;2023-05-29T07:42:57;101498.69;;;12.50;83.39
76632;BME280;65526;48.578;-4.520;2023-05-29T07:45:27;101919.88;;;14.73;83.37
76632;BME280;65526;48.578;-4.520;2023-05-29T07:47:53;101913.47;;;14.73;83.49
76632;BME280;65526;48.578;-4.520;2023-05-29T07:50:20;101145.69;;;9.99;83.22
76632;BME280;65526;48.578;-4.520;2023-05-29T07:52:46;101635.53;;;12.98;83.46
76632;BME280;65526;48.578;-4.520;2023-05-29T07:55:12;101352.75;;;11.14;83.57
76632;BME280;65526;48.578;-4.520;2023-05-29T07:57:39;101899.84;;;14.26;84.40
76632;BME280;65526;48.578;-4.520;2023-05-29T08:00:06;101873.69;;;14.79;84.74
76632;BME280;65526;48.578;-4.520;2023-05-29T08:02:35;101459.19;;;11.82;83.59
76632;BME280;65526;48.578;-4.520;2023-05-29T08:05:34;101820.59;;;14.22;83.48
76632;BME280;65526;48.578;-4.520;2023-05-29T08:08:06;101968.28;;;14.86;83.37
76632;BME280;65526;48.578;-4.520;2023-05-29T08:10:35;101931.41;;;14.84;83.80
76632;BME280;65526;48.578;-4.520;2023-05-29T08:13:02;101943.78;;;14.95;82.88
76632;BME280;65526;48.578;-4.520;2023-05-29T08:15:30;101412.97;;;11.81;83.13
76632;BME280;65526;48.578;-4.520;2023-05-29T08:17:57;101364.63;;;11.65;83.24
76632;BME280;65526;48.578;-4.520;2023-05-29T08:20:24;101158.97;;;10.23;83.05
76632;BME280;65526;48.578;-4.520;2023-05-29T08:22:50;101904.59;;;14.95;83.58
76632;BME280;65526;48.578;-4.520;2023-05-29T08:25:17;101714.38;;;13.73;83.31
76632;BME280;65526;48.578;-4.520;2023-05-29T08:27:43;101904.13;;;15.05;82.78
76632;BME280;65526;48.578;-4.520;2023-05-29T08:30:10;101479.41;;;12.12;81.82
76632;BME280;65526;48.578;-4.520;2023-05-29T08:32:37;101643.22;;;13.59;82.50
76632;BME280;65526;48.578;-4.520;2023-05-29T08:35:04;101709.91;;;13.60;82.10
76632;BME280;65526;48.578;-4.520;2023-05-29T08:37:30;101369.88;;;11.99;82.29
76632;BME280;65526;48.578;-4.520;2023-05-29T08:39:57;101097.91;;;10.14;81.11
76632;BME280;65526;48.578;-4.520;2023-05-29T08:42:32;101695.72;;;13.65;81.58
76632;BME280;65526;48.578;-4.520;2023-05-29T08:45:02;101858.75;;;14.63;81.88
76632;BME280;65526;48.578;-4.520;2023-05-29T08:47:33;101636.25;;;13.65;82.04
76632;BME280;65526;48.578;-4.520;2023-05-29T08:50:00;101857.13;;;14.86;81.71
76632;BME280;65526;48.578;-4.520;2023-05-29T08:52:31;101959.03;;;15.34;81.87
76632;BME280;65526;48.578;-4.520;2023-05-29T08:55:01;101951.00;;;15.32;81.74
76632;BME280;65526;48.578;-4.520;2023-05-29T08:57:31;101282.06;;;11.15;81.35
76632;BME280;65526;48.578;-4.520;2023-05-29T08:59:58;101900.09;;;15.30;81.49
76632;BME280;65526;48.578;-4.520;2023-05-29T09:02:25;101722.41;;;14.11;81.73
76632;BME280;65526;48.578;-4.520;2023-05-29T09:04:51;101354.22;;;12.07;80.99
76632;BME280;65526;48.578;-4.520;2023-05-29T09:07:20;101458.59;;;12.42;81.23
76632;BME280;65526;48.578;-4.520;2023-05-29T09:09:48;101491.25;;;12.54;81.81
76632;BME280;65526;48.578;-4.520;2023-05-29T09:12:15;101658.44;;;13.49;81.32
76632;BME280;65526;48.578;-4.520;2023-05-29T09:14:44;101972.22;;;15.45;81.14
76632;BME280;65526;48.578;-4.520;2023-05-29T09:17:12;101644.16;;;13.75;80.75
76632;BME280;65526;48.578;-4.520;2023-05-29T09:19:39;101459.00;;;12.65;81.05
76632;BME280;65526;48.578;-4.520;2023-05-29T09:22:11;101656.38;;;13.82;81.12
76632;BME280;65526;48.578;-4.520;2023-05-29T09:24:42;101476.78;;;12.27;81.63
76632;BME280;65526;48.578;-4.520;2023-05-29T09:27:09;101437.72;;;12.60;81.85
76632;BME280;65526;48.578;-4.520;2023-05-29T09:32:08;101258.31;;;11.50;79.68
76632;BME280;65526;48.578;-4.520;2023-05-29T09:34:35;101404.28;;;12.15;80.77
76632;BME280;65526;48.578;-4.520;2023-05-29T09:37:08;101947.91;;;15.50;81.25
76632;BME280;65526;48.578;-4.520;2023-05-29T09:39:46;101660.78;;;13.96;81.02
76632;BME280;65526;48.578;-4.520;2023-05-29T09:42:14;101294.53;;;11.30;79.89
76632;BME280;65526;48.578;-4.520;2023-05-29T09:44:41;101220.97;;;11.19;80.94
76632;BME280;65526;48.578;-4.520;2023-05-29T09:47:08;102025.00;;;15.56;80.64
76632;BME280;65526;48.578;-4.520;2023-05-29T09:49:34;101918.97;;;15.58;81.26
76632;BME280;65526;48.578;-4.520;2023-05-29T09:52:04;101652.41;;;14.08;81.03
76632;BME280;65526;48.578;-4.520;2023-05-29T09:54:34;101638.22;;;14.01;80.53
76632;BME280;65526;48.578;-4.520;2023-05-29T09:57:03;101793.03;;;14.57;80.90
76632;BME280;65526;48.578;-4.520;2023-05-29T09:59:31;101946.94;;;15.70;81.44
76632;BME280;65526;48.578;-4.520;2023-05-29T10:02:04;101247.31;;;11.54;80.71
76632;BME280;65526;48.578;-4.520;2023-05-29T10:04:36;101550.81;;;13.52;80.20
76632;BME280;65526;48.578;-4.520;2023-05-29T10:09:49;101327.56;;;12.18;79.72
76632;BME280;65526;48.578;-4.520;2023-05-29T10:12:22;101775.56;;;14.48;80.22
76632;BME280;65526;48.578;-4.520;2023-05-29T10:14:54;101989.91;;;15.86;79.56
76632;BME280;65526;48.578;-4.520;2023-05-29T10:17:25;102000.75;;;15.88;79.34
76632;BME280;65526;48.578;-4.520;2023-05-29T10:19:54;101890.00;;;15.66;80.02
76632;BME280;65526;48.578;-4.520;2023-05-29T10:22:26;101310.69;;;11.69;80.38
76632;BME280;65526;48.578;-4.520;2023-05-29T10:24:53;101926.78;;;15.92;80.14
76632;BME280;65526;48.578;-4.520;2023-05-29T10:27:22;101719.50;;;14.32;79.54
76632;BME280;65526;48.578;-4.520;2023-05-29T10:29:54;101588.84;;;13.93;79.10
76632;BME280;65526;48.578;-4.520;2023-05-29T10:35:31;101959.31;;;16.09;79.56
76632;BME280;65526;48.578;-4.520;2023-05-29T10:38:08;101485.09;;;13.18;79.30
76632;BME280;65526;48.578;-4.520;2023-05-29T10:40:36;101214.41;;;11.68;79.97
76632;BME280;65526;48.578;-4.520;2023-05-29T10:43:02;101523.50;;;13.33;79.83
76632;BME280;65526;48.578;-4.520;2023-05-29T10:50:46;101638.84;;;14.46;79.33
76632;BME280;65526;48.578;-4.520;2023-05-29T10:53:17;101777.22;;;14.89;79.03
76632;BME280;65526;48.578;-4.520;2023-05-29T10:55:45;101914.81;;;16.23;79.72
76632;BME280;65526;48.578;-4.520;2023-05-29T10:58:19;101197.38;;;11.82;78.89
76632;BME280;65526;48.578;-4.520;2023-05-29T11:00:47;101918.09;;;16.25;79.45
76632;BME280;65526;48.578;-4.520;2023-05-29T11:03:32;101655.34;;;14.63;79.29
76632;BME280;65526;48.578;-4.520;2023-05-29T11:06:21;101922.88;;;16.24;81.21
76632;BME280;65526;48.578;-4.520;2023-05-29T11:08:54;101696.28;;;14.56;80.79
76632;BME280;65526;48.578;-4.520;2023-05-29T11:14:01;101502.50;;;13.63;78.74
76632;BME280;65526;48.578;-4.520;2023-05-29T11:19:03;101940.44;;;16.37;78.39
76632;BME280;65526;48.578;-4.520;2023-05-29T11:21:38;101514.63;;;13.43;78.83
76632;BME280;65526;48.578;-4.520;2023-05-29T11:24:25;101454.22;;;13.63;79.20
76632;BME280;65526;48.578;-4.520;2023-05-29T11:26:53;101915.78;;;16.43;78.78
76632;BME280;65526;48.578;-4.520;2023-05-29T11:29:29;101950.53;;;16.54;79.31
76632;BME280;65526;48.578;-4.520;2023-05-29T11:32:02;101522.25;;;13.82;78.25
76632;BME280;65526;48.578;-4.520;2023-05-29T11:34:30;101220.03;;;12.05;78.12
76632;BME280;65526;48.578;-4.520;2023-05-29T11:37:00;101906.78;;;16.37;79.13
76632;BME280;65526;48.578;-4.520;2023-05-29T11:39:28;101504.72;;;13.58;79.00
76632;BME280;65526;48.578;-4.520;2023-05-29T11:41:55;101652.34;;;14.84;79.84
76632;BME280;65526;48.578;-4.520;2023-05-29T11:44:25;101723.44;;;15.23;79.84
76632;BME280;65526;48.578;-4.520;2023-05-29T11:47:03;101394.31;;;13.48;79.06
76632;BME280;65526;48.578;-4.520;2023-05-29T11:49:34;101152.13;;;11.97;78.34
76632;BME280;65526;48.578;-4.520;2023-05-29T11:52:12;101621.72;;;14.76;78.64
76632;BME280;65526;48.578;-4.520;2023-05-29T11:54:40;101670.25;;;14.95;77.96
76632;BME280;65526;48.578;-4.520;2023-05-29T11:57:19;101657.34;;;14.91;79.24
76632;BME280;65526;48.578;-4.520;2023-05-29T11:59:49;101732.50;;;15.32;78.05
76632;BME280;65526;48.578;-4.520;2023-05-29T12:02:18;101507.44;;;13.94;78.68
76632;BME280;65526;48.578;-4.520;2023-05-29T12:05:02;101448.38;;;13.68;78.10
76632;BME280;65526;48.578;-4.520;2023-05-29T12:07:30;101376.34;;;13.33;77.89
76632;BME280;65526;48.578;-4.520;2023-05-29T12:09:57;101618.53;;;14.49;78.02
76632;BME280;65526;48.578;-4.520;2023-05-29T12:12:23;101950.63;;;16.42;78.11
76632;BME280;65526;48.578;-4.520;2023-05-29T12:14:50;101345.69;;;12.48;77.90
76632;BME280;65526;48.578;-4.520;2023-05-29T12:17:18;101553.00;;;14.22;78.71
76632;BME280;65526;48.578;-4.520;2023-05-29T12:19:44;101925.97;;;16.51;79.31
76632;BME280;65526;48.578;-4.520;2023-05-29T12:22:11;101939.03;;;16.59;79.00
76632;BME280;65526;48.578;-4.520;2023-05-29T12:24:39;101137.41;;;11.27;77.32
76632;BME280;65526;48.578;-4.520;2023-05-29T12:27:11;101437.56;;;13.54;77.54
76632;BME280;65526;48.578;-4.520;2023-05-29T12:29:37;101420.78;;;13.14;78.98
76632;BME280;65526;48.578;-4.520;2023-05-29T12:32:09;101945.38;;;16.56;78.06
76632;BME280;65526;48.578;-4.520;2023-05-29T12:34:36;101650.16;;;14.78;78.20
76632;BME280;65526;48.578;-4.520;2023-05-29T12:37:07;101411.00;;;13.72;78.28
76632;BME280;65526;48.578;-4.520;2023-05-29T12:39:36;101989.78;;;16.97;76.67
76632;BME280;65526;48.578;-4.520;2023-05-29T12:42:02;101969.50;;;16.88;76.76
76632;BME280;65526;48.578;-4.520;2023-05-29T12:44:29;101325.56;;;12.67;76.71
76632;BME280;65526;48.578;-4.520;2023-05-29T12:46:56;101980.56;;;16.81;77.69
76632;BME280;65526;48.578;-4.520;2023-05-29T12:49:23;101490.47;;;13.87;78.16
76632;BME280;65526;48.578;-4.520;2023-05-29T12:51:51;102016.31;;;16.84;78.20
76632;BME280;65526;48.578;-4.520;2023-05-29T12:54:18;101656.91;;;14.77;77.98
76632;BME280;65526;48.578;-4.520;2023-05-29T12:56:44;101500.81;;;13.99;76.12
76632;BME280;65526;48.578;-4.520;2023-05-29T12:59:12;101457.19;;;13.82;77.10
76632;BME280;65526;48.578;-4.520;2023-05-29T13:01:38;101155.50;;;11.90;77.04
76632;BME280;65526;48.578;-4.520;2023-05-29T13:04:05;101558.69;;;14.38;77.76
76632;BME280;65526;48.578;-4.520;2023-05-29T13:06:36;101236.38;;;12.06;78.02
76632;BME280;65526;48.578;-4.520;2023-05-29T13:09:03;101494.53;;;13.89;76.89
76632;BME280;65526;48.578;-4.520;2023-05-29T13:11:31;101145.13;;;11.67;76.80
76632;BME280;65526;48.578;-4.520;2023-05-29T13:13:58;101937.41;;;16.58;77.96
76632;BME280;65526;48.578;-4.520;2023-05-29T13:16:24;101317.94;;;12.52;78.60
76632;BME280;65526;48.578;-4.520;2023-05-29T13:18:51;101714.88;;;15.60;77.63
76632;BME280;65526;48.578;-4.520;2023-05-29T13:21:17;101945.22;;;16.80;78.36